sensor_id;sensor_type;location;lat;lon;timestamp;pressure;altitude;pressure_sealevel;temperature;humidity
19759;BME280;10038;42.662;23.278;2023-04-28T00:00:00;160168.78;;;5.63;62.50
19759;BME280;10038;42.662;23.278;2023-04-28T00:05:00;160217.91;;;5.81;62.54
19759;BME280;10038;42.662;23.278;2023-04-28T00:17:54;160276.41;;;6.04;63.02
19759;BME280;10038;42.662;23.278;2023-04-28T00:28:06;160236.50;;;5.88;63.75
19759;BME280;10038;42.662;23.278;2023-04-28T00:30:33;160114.31;;;5.42;64.19
19759;BME280;10038;42.662;23.278;2023-04-28T00:35:38;160005.44;;;5.01;64.29
19759;BME280;10038;42.662;23.278;2023-04-28T01:04:41;160118.31;;;5.44;65.56
19759;BME280;10038;42.662;23.278;2023-04-28T02:48:30;159952.38;;;4.81;67.80
19759;BME280;10038;42.662;23.278;2023-04-28T02:51:00;159862.13;;;4.46;68.02
19759;BME280;10038;42.662;23.278;2023-04-28T03:08:59;159599.53;;;3.46;66.88
19759;BME280;10038;42.662;23.278;2023-04-28T03:14:21;159916.50;;;4.67;66.88
19759;BME280;10038;42.662;23.278;2023-04-28T03:27:16;159917.84;;;4.67;67.08
19759;BME280;10038;42.662;23.278;2023-04-28T03:32:24;159947.03;;;4.78;66.08
19759;BME280;10038;42.662;23.278;2023-04-28T03:37:26;159962.97;;;4.85;65.44
19759;BME280;10038;42.662;23.278;2023-04-28T03:39:53;159978.91;;;4.91;65.40
19759;BME280;10038;42.662;23.278;2023-04-28T03:55:17;159875.41;;;4.51;63.75
19759;BME280;10038;42.662;23.278;2023-04-28T03:57:44;160061.19;;;5.22;63.22
19759;BME280;10038;42.662;23.278;2023-04-28T04:00:13;160079.78;;;5.29;62.72
19759;BME280;10038;42.662;23.278;2023-04-28T04:07:50;159989.50;;;4.95;62.70
19759;BME280;10038;42.662;23.278;2023-04-28T04:10:18;160106.31;;;5.39;62.42
19759;BME280;10038;42.662;23.278;2023-04-28T04:12:46;160106.31;;;5.39;62.19
19759;BME280;10038;42.662;23.278;2023-04-28T04:15:14;160130.25;;;5.48;62.24
19759;BME280;10038;42.662;23.278;2023-04-28T04:17:41;160106.31;;;5.39;61.61
19759;BME280;10038;42.662;23.278;2023-04-28T04:22:37;160188.69;;;5.70;61.75
19759;BME280;10038;42.662;23.278;2023-04-28T04:35:43;160321.53;;;6.21;60.42
19759;BME280;10038;42.662;23.278;2023-04-28T04:38:11;160321.53;;;6.21;60.13
19759;BME280;10038;42.662;23.278;2023-04-28T04:40:38;160341.50;;;6.28;59.96
19759;BME280;10038;42.662;23.278;2023-04-28T04:43:05;160372.06;;;6.40;60.00
19759;BME280;10038;42.662;23.278;2023-04-28T04:45:34;160223.19;;;5.83;59.41
19759;BME280;10038;42.662;23.278;2023-04-28T04:50:40;160507.59;;;6.91;58.90
19759;BME280;10038;42.662;23.278;2023-04-28T04:53:11;160515.59;;;6.94;58.26
19759;BME280;10038;42.662;23.278;2023-04-28T04:55:41;160528.88;;;6.99;58.17
19759;BME280;10038;42.662;23.278;2023-04-28T05:00:52;160547.47;;;7.06;57.70
19759;BME280;10038;42.662;23.278;2023-04-28T05:03:27;160532.84;;;7.01;57.05
19759;BME280;10038;42.662;23.278;2023-04-28T05:05:56;160659.19;;;7.49;57.01
19759;BME280;10038;42.662;23.278;2023-04-28T05:11:06;160699.03;;;7.64;56.77
19759;BME280;10038;42.662;23.278;2023-04-28T05:13:34;160725.69;;;7.74;56.52
19759;BME280;10038;42.662;23.278;2023-04-28T05:16:02;160781.53;;;7.95;55.90
19759;BME280;10038;42.662;23.278;2023-04-28T05:18:30;160725.69;;;7.74;55.19
19759;BME280;10038;42.662;23.278;2023-04-28T05:21:00;160921.31;;;8.48;53.57
19759;BME280;10038;42.662;23.278;2023-04-28T05:23:32;160941.28;;;8.56;53.65
19759;BME280;10038;42.662;23.278;2023-04-28T05:31:21;160982.53;;;8.71;52.61
19759;BME280;10038;42.662;23.278;2023-04-28T05:33:52;161122.34;;;9.24;51.80
19759;BME280;10038;42.662;23.278;2023-04-28T05:36:20;160933.28;;;8.53;52.21
19759;BME280;10038;42.662;23.278;2023-04-28T05:38:47;161002.47;;;8.79;52.51
19759;BME280;10038;42.662;23.278;2023-04-28T05:41:15;161061.06;;;9.01;51.50
19759;BME280;10038;42.662;23.278;2023-04-28T05:43:45;161146.34;;;9.33;51.10
19759;BME280;10038;42.662;23.278;2023-04-28T05:46:18;161263.56;;;9.78;49.94
19759;BME280;10038;42.662;23.278;2023-04-28T05:48:46;161118.38;;;9.23;49.91
19759;BME280;10038;42.662;23.278;2023-04-28T05:51:16;161290.19;;;9.88;49.34
19759;BME280;10038;42.662;23.278;2023-04-28T05:53:43;161462.16;;;10.53;48.25
19759;BME280;10038;42.662;23.278;2023-04-28T05:56:14;161596.81;;;11.04;47.26
19759;BME280;10038;42.662;23.278;2023-04-28T05:58:45;161779.59;;;11.73;45.38
19759;BME280;10038;42.662;23.278;2023-04-28T06:09:04;161941.06;;;12.34;41.36
19759;BME280;10038;42.662;23.278;2023-04-28T06:11:31;162017.19;;;12.63;41.46
19759;BME280;10038;42.662;23.278;2023-04-28T06:13:58;161946.44;;;12.36;41.46
19759;BME280;10038;42.662;23.278;2023-04-28T06:16:25;161974.47;;;12.47;41.00
19759;BME280;10038;42.662;23.278;2023-04-28T06:21:27;162216.19;;;13.38;40.65
19759;BME280;10038;42.662;23.278;2023-04-28T06:23:56;162371.19;;;13.96;39.33
19759;BME280;10038;42.662;23.278;2023-04-28T06:26:27;162467.50;;;14.33;38.76
19759;BME280;10038;42.662;23.278;2023-04-28T06:28:55;162428.66;;;14.18;38.13
19759;BME280;10038;42.662;23.278;2023-04-28T06:31:27;162726.91;;;15.30;36.66
19759;BME280;10038;42.662;23.278;2023-04-28T06:39:10;162819.28;;;15.65;35.70
19759;BME280;10038;42.662;23.278;2023-04-28T06:41:38;162646.63;;;15.00;36.50
19759;BME280;10038;42.662;23.278;2023-04-28T06:44:23;162582.47;;;14.76;35.95
19759;BME280;10038;42.662;23.278;2023-04-28T06:46:50;162797.88;;;15.57;35.67
19759;BME280;10038;42.662;23.278;2023-04-28T06:49:17;162982.53;;;16.27;41.47
19759;BME280;10038;42.662;23.278;2023-04-28T06:51:44;162991.94;;;16.30;36.29
19759;BME280;10038;42.662;23.278;2023-04-28T06:54:11;162977.19;;;16.25;34.44
19759;BME280;10038;42.662;23.278;2023-04-28T06:56:40;162921.00;;;16.04;34.78
19759;BME280;10038;42.662;23.278;2023-04-28T06:59:07;163072.31;;;16.61;33.84
19759;BME280;10038;42.662;23.278;2023-04-28T07:01:34;163040.09;;;16.48;34.44
19759;BME280;10038;42.662;23.278;2023-04-28T07:04:01;162941.06;;;16.11;33.67
19759;BME280;10038;42.662;23.278;2023-04-28T07:06:28;163243.69;;;17.25;32.75
19759;BME280;10038;42.662;23.278;2023-04-28T07:11:34;163258.44;;;17.31;32.97
19759;BME280;10038;42.662;23.278;2023-04-28T07:14:02;163434.00;;;17.97;32.39
19759;BME280;10038;42.662;23.278;2023-04-28T07:16:29;163625.75;;;18.69;31.07
19759;BME280;10038;42.662;23.278;2023-04-28T07:18:56;163653.91;;;18.79;30.57
19759;BME280;10038;42.662;23.278;2023-04-28T07:21:23;163841.78;;;19.50;28.86
19759;BME280;10038;42.662;23.278;2023-04-28T07:23:50;163459.50;;;18.06;30.14
19759;BME280;10038;42.662;23.278;2023-04-28T07:26:17;163627.13;;;18.69;30.01
19759;BME280;10038;42.662;23.278;2023-04-28T07:28:44;163882.00;;;19.65;28.29
19759;BME280;10038;42.662;23.278;2023-04-28T07:31:12;163784.00;;;19.28;28.86
19759;BME280;10038;42.662;23.278;2023-04-28T07:33:39;163468.91;;;18.10;29.43
19759;BME280;10038;42.662;23.278;2023-04-28T07:36:06;163773.28;;;19.24;29.01
19759;BME280;10038;42.662;23.278;2023-04-28T07:38:33;163890.06;;;19.68;27.92
19759;BME280;10038;42.662;23.278;2023-04-28T07:41:00;163969.22;;;19.98;28.06
19759;BME280;10038;42.662;23.278;2023-04-28T07:43:27;163863.25;;;19.58;28.77
19759;BME280;10038;42.662;23.278;2023-04-28T07:45:54;164009.50;;;20.13;28.21
19759;BME280;10038;42.662;23.278;2023-04-28T07:48:22;164165.22;;;20.72;28.02
19759;BME280;10038;42.662;23.278;2023-04-28T07:50:50;164411.09;;;21.64;26.63
19759;BME280;10038;42.662;23.278;2023-04-28T07:53:17;164214.97;;;20.90;26.74
19759;BME280;10038;42.662;23.278;2023-04-28T07:55:44;164437.94;;;21.74;25.68
19759;BME280;10038;42.662;23.278;2023-04-28T07:58:11;164991.97;;;23.82;24.17
19759;BME280;10038;42.662;23.278;2023-04-28T08:00:38;164620.75;;;22.43;25.20
19759;BME280;10038;42.662;23.278;2023-04-28T08:03:05;164740.47;;;22.87;24.61
19759;BME280;10038;42.662;23.278;2023-04-28T08:05:34;164197.47;;;20.84;26.59
19759;BME280;10038;42.662;23.278;2023-04-28T08:08:06;164390.91;;;21.56;25.76
19759;BME280;10038;42.662;23.278;2023-04-28T08:10:33;164827.88;;;23.20;25.35
19759;BME280;10038;42.662;23.278;2023-04-28T08:13:00;164576.41;;;22.26;24.59
19759;BME280;10038;42.662;23.278;2023-04-28T08:15:35;164584.47;;;22.29;25.83
19759;BME280;10038;42.662;23.278;2023-04-28T08:18:03;164752.53;;;22.92;25.44
19759;BME280;10038;42.662;23.278;2023-04-28T08:20:30;164572.38;;;22.24;24.81
19759;BME280;10038;42.662;23.278;2023-04-28T08:23:02;164408.38;;;21.63;25.47
19759;BME280;10038;42.662;23.278;2023-04-28T08:25:32;164432.59;;;21.72;26.08
19759;BME280;10038;42.662;23.278;2023-04-28T08:28:02;164507.84;;;22.00;25.41
19759;BME280;10038;42.662;23.278;2023-04-28T08:30:30;164556.25;;;22.18;25.29
19759;BME280;10038;42.662;23.278;2023-04-28T08:32:58;164895.16;;;23.45;23.82
19759;BME280;10038;42.662;23.278;2023-04-28T08:35:27;165027.00;;;23.95;23.59
19759;BME280;10038;42.662;23.278;2023-04-28T08:37:54;164459.44;;;21.82;24.76
19759;BME280;10038;42.662;23.278;2023-04-28T08:40:23;164386.91;;;21.55;25.89
19759;BME280;10038;42.662;23.278;2023-04-28T08:42:51;165171.00;;;24.49;29.36
19759;BME280;10038;42.662;23.278;2023-04-28T08:45:18;164818.44;;;23.17;24.02
19759;BME280;10038;42.662;23.278;2023-04-28T08:47:48;164688.03;;;22.68;24.24
19759;BME280;10038;42.662;23.278;2023-04-28T08:50:20;164986.59;;;23.80;23.85
19759;BME280;10038;42.662;23.278;2023-04-28T08:52:48;165061.97;;;24.08;24.09
19759;BME280;10038;42.662;23.278;2023-04-28T08:55:18;164975.88;;;23.76;23.38
19759;BME280;10038;42.662;23.278;2023-04-28T08:57:48;164885.75;;;23.42;23.43
19759;BME280;10038;42.662;23.278;2023-04-28T09:00:16;164653.03;;;22.55;24.70
19759;BME280;10038;42.662;23.278;2023-04-28T09:02:43;164525.31;;;22.07;24.43
19759;BME280;10038;42.662;23.278;2023-04-28T09:05:11;164768.69;;;22.98;24.36
19759;BME280;10038;42.662;23.278;2023-04-28T09:07:38;164822.50;;;23.18;24.53
19759;BME280;10038;42.662;23.278;2023-04-28T09:10:16;164942.22;;;23.63;24.78
19759;BME280;10038;42.662;23.278;2023-04-28T09:12:43;164796.91;;;23.09;25.05
19759;BME280;10038;42.662;23.278;2023-04-28T09:15:24;164931.47;;;23.59;23.55
19759;BME280;10038;42.662;23.278;2023-04-28T09:17:52;164685.31;;;22.67;24.41
19759;BME280;10038;42.662;23.278;2023-04-28T09:20:19;164693.38;;;22.70;23.77
19759;BME280;10038;42.662;23.278;2023-04-28T09:22:47;164640.91;;;22.50;24.54
19759;BME280;10038;42.662;23.278;2023-04-28T09:25:15;164915.31;;;23.53;23.90
19759;BME280;10038;42.662;23.278;2023-04-28T09:27:42;164928.78;;;23.58;25.25
19759;BME280;10038;42.662;23.278;2023-04-28T09:30:09;164987.97;;;23.80;23.91
19759;BME280;10038;42.662;23.278;2023-04-28T09:32:37;165150.84;;;24.41;22.75
19759;BME280;10038;42.662;23.278;2023-04-28T09:35:05;165094.28;;;24.20;23.30
19759;BME280;10038;42.662;23.278;2023-04-28T09:37:33;165064.66;;;24.09;22.67
19759;BME280;10038;42.662;23.278;2023-04-28T09:40:06;164967.78;;;23.73;23.50
19759;BME280;10038;42.662;23.278;2023-04-28T09:42:34;165021.56;;;23.93;23.70
19759;BME280;10038;42.662;23.278;2023-04-28T09:45:03;164987.97;;;23.80;23.09
19759;BME280;10038;42.662;23.278;2023-04-28T09:47:30;164930.13;;;23.59;23.68
19759;BME280;10038;42.662;23.278;2023-04-28T09:50:01;164934.13;;;23.60;24.02
19759;BME280;10038;42.662;23.278;2023-04-28T09:52:29;164993.34;;;23.82;23.24
19759;BME280;10038;42.662;23.278;2023-04-28T09:54:56;165175.03;;;24.50;22.33
19759;BME280;10038;42.662;23.278;2023-04-28T09:57:24;165348.75;;;25.15;22.24
19759;BME280;10038;42.662;23.278;2023-04-28T09:59:52;165142.75;;;24.38;22.79
19759;BME280;10038;42.662;23.278;2023-04-28T10:02:20;164908.59;;;23.51;23.16
19759;BME280;10038;42.662;23.278;2023-04-28T10:04:48;165084.91;;;24.17;24.44
19759;BME280;10038;42.662;23.278;2023-04-28T10:07:19;164814.41;;;23.15;23.37
19759;BME280;10038;42.662;23.278;2023-04-28T10:09:47;165126.59;;;24.32;23.33
19759;BME280;10038;42.662;23.278;2023-04-28T10:12:15;165101.06;;;24.23;22.83
19759;BME280;10038;42.662;23.278;2023-04-28T10:14:42;165230.22;;;24.71;22.76
19759;BME280;10038;42.662;23.278;2023-04-28T10:17:10;165336.59;;;25.11;21.89
19759;BME280;10038;42.662;23.278;2023-04-28T10:19:39;164993.34;;;23.82;22.87
19759;BME280;10038;42.662;23.278;2023-04-28T10:22:23;164862.81;;;23.33;23.58
19759;BME280;10038;42.662;23.278;2023-04-28T10:27:48;165382.41;;;25.28;21.47
19759;BME280;10038;42.662;23.278;2023-04-28T10:30:17;165495.59;;;25.70;20.66
19759;BME280;10038;42.662;23.278;2023-04-28T10:32:44;164873.66;;;23.37;22.69
19759;BME280;10038;42.662;23.278;2023-04-28T10:35:39;164983.91;;;23.79;22.29
19759;BME280;10038;42.662;23.278;2023-04-28T10:38:10;164903.25;;;23.48;24.97
19759;BME280;10038;42.662;23.278;2023-04-28T10:40:39;164940.84;;;23.63;22.62
19759;BME280;10038;42.662;23.278;2023-04-28T10:43:07;165164.28;;;24.46;21.85
19759;BME280;10038;42.662;23.278;2023-04-28T10:46:08;165004.13;;;23.86;21.82
19759;BME280;10038;42.662;23.278;2023-04-28T10:48:56;164991.97;;;23.82;22.37
19759;BME280;10038;42.662;23.278;2023-04-28T10:51:30;165036.38;;;23.98;21.89
19759;BME280;10038;42.662;23.278;2023-04-28T10:54:26;164975.88;;;23.76;22.00
19759;BME280;10038;42.662;23.278;2023-04-28T10:57:19;164838.59;;;23.24;22.78
19759;BME280;10038;42.662;23.278;2023-04-28T10:59:47;165192.53;;;24.57;21.65
19759;BME280;10038;42.662;23.278;2023-04-28T11:02:48;164954.34;;;23.68;22.85
19759;BME280;10038;42.662;23.278;2023-04-28T11:05:16;165148.13;;;24.40;22.45
19759;BME280;10038;42.662;23.278;2023-04-28T11:11:23;164915.31;;;23.53;22.86
19759;BME280;10038;42.662;23.278;2023-04-28T11:13:52;165029.66;;;23.96;23.12
19759;BME280;10038;42.662;23.278;2023-04-28T11:16:24;164920.69;;;23.55;23.26
19759;BME280;10038;42.662;23.278;2023-04-28T11:18:59;164913.97;;;23.53;22.00
19759;BME280;10038;42.662;23.278;2023-04-28T11:21:29;164873.66;;;23.37;21.91
19759;BME280;10038;42.662;23.278;2023-04-28T11:23:57;164897.81;;;23.46;22.01
19759;BME280;10038;42.662;23.278;2023-04-28T11:26:26;164870.88;;;23.36;23.13
19759;BME280;10038;42.662;23.278;2023-04-28T11:28:54;165048.50;;;24.03;22.74
19759;BME280;10038;42.662;23.278;2023-04-28T11:31:22;164870.88;;;23.36;22.64
19759;BME280;10038;42.662;23.278;2023-04-28T11:33:59;165094.28;;;24.20;22.76
19759;BME280;10038;42.662;23.278;2023-04-28T11:36:31;165032.34;;;23.97;23.68
19759;BME280;10038;42.662;23.278;2023-04-28T11:39:00;165115.81;;;24.28;22.64
19759;BME280;10038;42.662;23.278;2023-04-28T11:41:28;165210.06;;;24.63;23.05
19759;BME280;10038;42.662;23.278;2023-04-28T11:43:55;165075.47;;;24.13;23.43
19759;BME280;10038;42.662;23.278;2023-04-28T11:46:27;164776.75;;;23.01;21.86
19759;BME280;10038;42.662;23.278;2023-04-28T11:49:01;164650.31;;;22.54;23.30
19759;BME280;10038;42.662;23.278;2023-04-28T11:51:29;164778.13;;;23.02;22.93
19759;BME280;10038;42.662;23.278;2023-04-28T11:53:57;164727.03;;;22.82;22.71
19759;BME280;10038;42.662;23.278;2023-04-28T11:56:24;164817.06;;;23.16;21.46
19759;BME280;10038;42.662;23.278;2023-04-28T11:59:07;164936.84;;;23.61;22.29
19759;BME280;10038;42.662;23.278;2023-04-28T12:01:42;164811.72;;;23.14;21.52
19759;BME280;10038;42.662;23.278;2023-04-28T12:04:10;164688.03;;;22.68;21.81
19759;BME280;10038;42.662;23.278;2023-04-28T12:06:38;164768.69;;;22.98;21.53
19759;BME280;10038;42.662;23.278;2023-04-28T12:09:14;164329.13;;;21.33;22.80
19759;BME280;10038;42.662;23.278;2023-04-28T12:11:52;164783.47;;;23.04;22.73
19759;BME280;10038;42.662;23.278;2023-04-28T12:14:21;164679.94;;;22.65;23.38
19759;BME280;10038;42.662;23.278;2023-04-28T12:16:48;164798.28;;;23.09;22.73
19759;BME280;10038;42.662;23.278;2023-04-28T12:19:15;164751.19;;;22.91;23.23
19759;BME280;10038;42.662;23.278;2023-04-28T12:21:57;164835.94;;;23.23;22.20
19759;BME280;10038;42.662;23.278;2023-04-28T12:24:25;164846.66;;;23.27;22.42
19759;BME280;10038;42.662;23.278;2023-04-28T12:26:52;164900.53;;;23.47;22.30
19759;BME280;10038;42.662;23.278;2023-04-28T12:29:37;164872.25;;;23.37;22.84
19759;BME280;10038;42.662;23.278;2023-04-28T12:32:06;164927.41;;;23.58;22.54
19759;BME280;10038;42.662;23.278;2023-04-28T12:34:33;164860.09;;;23.32;21.05
19759;BME280;10038;42.662;23.278;2023-04-28T12:37:00;165179.09;;;24.52;21.05
19759;BME280;10038;42.662;23.278;2023-04-28T12:39:31;165029.66;;;23.96;22.34
19759;BME280;10038;42.662;23.278;2023-04-28T12:41:58;164938.19;;;23.62;22.58
19759;BME280;10038;42.662;23.278;2023-04-28T12:44:27;164913.97;;;23.53;22.92
19759;BME280;10038;42.662;23.278;2023-04-28T12:47:01;164739.13;;;22.87;22.94
19759;BME280;10038;42.662;23.278;2023-04-28T12:49:28;164616.75;;;22.41;23.32
19759;BME280;10038;42.662;23.278;2023-04-28T12:51:55;164642.25;;;22.51;23.55
19759;BME280;10038;42.662;23.278;2023-04-28T12:54:22;164591.19;;;22.31;23.70
19759;BME280;10038;42.662;23.278;2023-04-28T12:56:49;164507.84;;;22.00;23.46
19759;BME280;10038;42.662;23.278;2023-04-28T12:59:16;164495.78;;;21.96;23.99
19759;BME280;10038;42.662;23.278;2023-04-28T13:01:43;164560.25;;;22.20;24.65
19759;BME280;10038;42.662;23.278;2023-04-28T13:04:11;164447.38;;;21.77;24.48
19759;BME280;10038;42.662;23.278;2023-04-28T13:06:38;164470.22;;;21.86;24.96
19759;BME280;10038;42.662;23.278;2023-04-28T13:09:08;164522.63;;;22.06;24.46
19759;BME280;10038;42.662;23.278;2023-04-28T13:11:35;164472.91;;;21.87;24.63
19759;BME280;10038;42.662;23.278;2023-04-28T13:14:02;164408.38;;;21.63;25.20
19759;BME280;10038;42.662;23.278;2023-04-28T13:16:29;164086.03;;;20.42;25.45
19759;BME280;10038;42.662;23.278;2023-04-28T13:18:56;164080.69;;;20.40;25.94
19759;BME280;10038;42.662;23.278;2023-04-28T13:21:25;164135.69;;;20.60;25.36
19759;BME280;10038;42.662;23.278;2023-04-28T13:23:53;164111.56;;;20.51;25.21
19759;BME280;10038;42.662;23.278;2023-04-28T13:26:20;164373.47;;;21.50;24.97
19759;BME280;10038;42.662;23.278;2023-04-28T13:28:48;164368.13;;;21.48;25.37
19759;BME280;10038;42.662;23.278;2023-04-28T13:31:16;164466.16;;;21.85;24.99
19759;BME280;10038;42.662;23.278;2023-04-28T13:33:43;164299.59;;;21.22;25.13
19759;BME280;10038;42.662;23.278;2023-04-28T13:36:11;164353.34;;;21.42;25.01
19759;BME280;10038;42.662;23.278;2023-04-28T13:38:41;164311.66;;;21.27;24.85
19759;BME280;10038;42.662;23.278;2023-04-28T13:41:13;164358.69;;;21.44;25.47
19759;BME280;10038;42.662;23.278;2023-04-28T13:43:41;164222.97;;;20.93;25.53
19759;BME280;10038;42.662;23.278;2023-04-28T13:46:08;164264.69;;;21.09;25.81
19759;BME280;10038;42.662;23.278;2023-04-28T13:48:36;164231.03;;;20.96;25.47
19759;BME280;10038;42.662;23.278;2023-04-28T13:51:09;164276.75;;;21.13;25.77
19759;BME280;10038;42.662;23.278;2023-04-28T13:53:43;164248.50;;;21.03;25.46
19759;BME280;10038;42.662;23.278;2023-04-28T13:56:12;164464.78;;;21.84;26.39
19759;BME280;10038;42.662;23.278;2023-04-28T13:58:42;164489.06;;;21.93;24.40
19759;BME280;10038;42.662;23.278;2023-04-28T14:01:09;164440.66;;;21.75;24.66
19759;BME280;10038;42.662;23.278;2023-04-28T14:03:37;164503.84;;;21.99;24.50
19759;BME280;10038;42.662;23.278;2023-04-28T14:06:06;164440.66;;;21.75;25.11
19759;BME280;10038;42.662;23.278;2023-04-28T14:08:33;164150.47;;;20.66;25.70
19759;BME280;10038;42.662;23.278;2023-04-28T14:11:02;164141.09;;;20.63;25.78
19759;BME280;10038;42.662;23.278;2023-04-28T14:13:29;164220.31;;;20.92;26.02
19759;BME280;10038;42.662;23.278;2023-04-28T14:15:56;164263.34;;;21.08;26.11
19759;BME280;10038;42.662;23.278;2023-04-28T14:18:23;164429.88;;;21.71;25.11
19759;BME280;10038;42.662;23.278;2023-04-28T14:20:50;164376.13;;;21.51;25.56
19759;BME280;10038;42.662;23.278;2023-04-28T14:23:18;164241.78;;;21.00;25.56
19759;BME280;10038;42.662;23.278;2023-04-28T14:25:45;164128.97;;;20.58;25.56
19759;BME280;10038;42.662;23.278;2023-04-28T14:28:13;164329.13;;;21.33;25.27
19759;BME280;10038;42.662;23.278;2023-04-28T14:30:40;164342.56;;;21.38;25.72
19759;BME280;10038;42.662;23.278;2023-04-28T14:33:07;164464.78;;;21.84;24.87
19759;BME280;10038;42.662;23.278;2023-04-28T14:35:34;164170.66;;;20.74;25.58
19759;BME280;10038;42.662;23.278;2023-04-28T14:38:02;164112.88;;;20.52;25.84
19759;BME280;10038;42.662;23.278;2023-04-28T14:40:29;164276.75;;;21.13;25.66
19759;BME280;10038;42.662;23.278;2023-04-28T14:42:56;164333.16;;;21.35;25.52
19759;BME280;10038;42.662;23.278;2023-04-28T14:45:25;164286.16;;;21.17;25.48
19759;BME280;10038;42.662;23.278;2023-04-28T14:47:52;164615.38;;;22.41;25.21
19759;BME280;10038;42.662;23.278;2023-04-28T14:50:19;164486.34;;;21.92;24.97
19759;BME280;10038;42.662;23.278;2023-04-28T14:52:46;164378.84;;;21.52;25.20
19759;BME280;10038;42.662;23.278;2023-04-28T14:55:13;164298.22;;;21.22;26.64
19759;BME280;10038;42.662;23.278;2023-04-28T14:57:40;164009.50;;;20.13;26.91
19759;BME280;10038;42.662;23.278;2023-04-28T15:00:08;164072.63;;;20.37;26.83
19759;BME280;10038;42.662;23.278;2023-04-28T15:02:36;163961.16;;;19.95;27.06
19759;BME280;10038;42.662;23.278;2023-04-28T15:05:03;164001.44;;;20.10;26.60
19759;BME280;10038;42.662;23.278;2023-04-28T15:07:30;164124.97;;;20.56;26.85
19759;BME280;10038;42.662;23.278;2023-04-28T15:09:57;164002.78;;;20.11;26.96
19759;BME280;10038;42.662;23.278;2023-04-28T15:12:24;164004.09;;;20.11;27.13
19759;BME280;10038;42.662;23.278;2023-04-28T15:14:54;164043.09;;;20.26;26.54
19759;BME280;10038;42.662;23.278;2023-04-28T15:17:21;163941.03;;;19.87;27.63
19759;BME280;10038;42.662;23.278;2023-04-28T15:19:50;163887.34;;;19.67;27.42
19759;BME280;10038;42.662;23.278;2023-04-28T15:22:16;163699.53;;;18.97;28.18
19759;BME280;10038;42.662;23.278;2023-04-28T15:24:43;163635.16;;;18.72;28.23
19759;BME280;10038;42.662;23.278;2023-04-28T15:27:10;163678.06;;;18.89;28.27
19759;BME280;10038;42.662;23.278;2023-04-28T15:29:37;163660.63;;;18.82;28.19
19759;BME280;10038;42.662;23.278;2023-04-28T15:32:04;163640.50;;;18.74;28.17
19759;BME280;10038;42.662;23.278;2023-04-28T15:38:47;163459.50;;;18.06;29.51
19759;BME280;10038;42.662;23.278;2023-04-28T15:41:16;163350.97;;;17.65;29.53
19759;BME280;10038;42.662;23.278;2023-04-28T15:43:43;163423.31;;;17.93;29.73
19759;BME280;10038;42.662;23.278;2023-04-28T15:46:10;163430.00;;;17.95;29.33
19759;BME280;10038;42.662;23.278;2023-04-28T15:48:41;163471.53;;;18.11;29.60
19759;BME280;10038;42.662;23.278;2023-04-28T15:51:09;163413.91;;;17.89;29.78
19759;BME280;10038;42.662;23.278;2023-04-28T15:53:36;163428.66;;;17.95;30.25
19759;BME280;10038;42.662;23.278;2023-04-28T15:56:05;163409.91;;;17.88;30.27
19759;BME280;10038;42.662;23.278;2023-04-28T15:58:33;163415.28;;;17.90;30.45
19759;BME280;10038;42.662;23.278;2023-04-28T16:01:00;163353.59;;;17.66;30.57
19759;BME280;10038;42.662;23.278;2023-04-28T16:06:03;163215.56;;;17.15;30.93
19759;BME280;10038;42.662;23.278;2023-04-28T16:08:30;163220.97;;;17.17;31.23
19759;BME280;10038;42.662;23.278;2023-04-28T16:10:58;163216.94;;;17.15;31.09
19759;BME280;10038;42.662;23.278;2023-04-28T16:13:26;163184.81;;;17.03;31.64
19759;BME280;10038;42.662;23.278;2023-04-28T16:15:57;163178.06;;;17.00;31.71
19759;BME280;10038;42.662;23.278;2023-04-28T16:18:23;163081.69;;;16.64;31.37
19759;BME280;10038;42.662;23.278;2023-04-28T16:20:50;162997.25;;;16.32;31.95
19759;BME280;10038;42.662;23.278;2023-04-28T16:23:18;162860.75;;;15.81;32.49
19759;BME280;10038;42.662;23.278;2023-04-28T16:25:46;162906.28;;;15.98;32.36
19759;BME280;10038;42.662;23.278;2023-04-28T16:28:15;162929.03;;;16.07;32.42
19759;BME280;10038;42.662;23.278;2023-04-28T16:30:43;162874.13;;;15.86;32.54
19759;BME280;10038;42.662;23.278;2023-04-28T16:33:10;162847.38;;;15.76;32.41
19759;BME280;10038;42.662;23.278;2023-04-28T16:35:37;162817.94;;;15.65;33.28
19759;BME280;10038;42.662;23.278;2023-04-28T16:43:12;162863.44;;;15.82;33.70
19759;BME280;10038;42.662;23.278;2023-04-28T16:48:18;162809.91;;;15.62;33.84
19759;BME280;10038;42.662;23.278;2023-04-28T16:50:48;162793.84;;;15.56;33.92
19759;BME280;10038;42.662;23.278;2023-04-28T16:53:16;162788.50;;;15.54;33.82
19759;BME280;10038;42.662;23.278;2023-04-28T16:58:18;162641.31;;;14.98;34.02
19759;BME280;10038;42.662;23.278;2023-04-28T17:08:32;162591.84;;;14.80;34.55
